Flight Track Log - Related Links

Times and Time Zones

All times are in EDT time to prevent confusion due to time zone crossing. See the SWA1096 flight status page for this flight to view local times or setup timezone preferences in your user account.

Time Position Orientation Groundspeed Altitude Reporting Facility
EDT Latitude Longitude Course Direction KTS MPH feet Rate Location/Type
Thu 03:51:22 PM 39.1333 -76.6333 128° Southeast 174 200 2,600  Level Potomac TRACON
Thu 03:52:22 PM 39.1167 -76.5667 108° East 233 268 5,600 2,876 Climbing Potomac TRACON
Thu 03:53:23 PM 39.1333 -76.4667 78° East 283 326 8,400 3,000 Climbing Potomac TRACON
Thu 03:55:00 PM 39.1428 -76.2794 86° East 332 382 13,500 3,057 Climbing Washington Center
Thu 03:56:00 PM 39.1600 -76.1592 80° East 361 415 16,400 2,800 Climbing Washington Center
Thu 03:57:00 PM 39.1772 -76.0228 81° East 379 436 19,100 2,750 Climbing Washington Center
Thu 03:58:00 PM 39.2006 -75.8836 78° East 389 448 21,900 2,650 Climbing Washington Center
Thu 03:59:00 PM 39.2800 -75.7686 48° Northeast 397 457 24,400 2,300 Climbing Washington Center
Thu 04:00:00 PM 39.3656 -75.6586 45° Northeast 410 472 26,500 2,050 Climbing Washington Center
Thu 04:01:00 PM 39.4553 -75.5431 45° Northeast 433 498 28,500 1,900 Climbing Washington Center
Thu 04:02:00 PM 39.5467 -75.4219 46° Northeast 451 519 30,300 2,150 Climbing Washington Center
Thu 04:03:00 PM 39.6403 -75.3033 44° Northeast 457 526 32,800 2,350 Climbing Washington Center
Thu 04:04:00 PM 39.7233 -75.1842 48° Northeast 457 526 35,000 1,100 Climbing Washington Center
Thu 04:05:00 PM 39.8061 -75.0622 49° Northeast 451 519 35,000  Level Washington Center
Thu 04:06:46 PM 40.0306 -74.9675 18° North 477 549 35,000  Level New York Center
Thu 04:07:47 PM 40.1547 -74.9342 12° North 463 533 35,000  Level New York Center
Thu 04:08:48 PM 40.2789 -74.8981 13° North 451 519 35,000  Level New York Center
Thu 04:09:46 PM 40.4017 -74.8456 18° North 456 525 35,000  Level New York Center
Thu 04:10:47 PM 40.4989 -74.8022 19° North 456 525 35,000  Level New York Center
Thu 04:11:48 PM 40.6300 -74.7469 18° North 456 525 35,000  Level New York Center
Thu 04:12:47 PM 40.7506 -74.6936 19° North 451 519 35,000  Level New York Center
Thu 04:13:48 PM 40.8711 -74.6403 18° North 451 519 35,000  Level New York Center
Thu 04:14:46 PM 40.9917 -74.5867 19° North 451 519 35,000  Level New York Center
Thu 04:15:47 PM 41.1164 -74.5303 19° North 451 519 35,000  Level New York Center
Thu 04:17:37 PM 41.3553 -74.4339 17° North 444 511 35,000 -35 Level Boston Center
Thu 04:18:37 PM 41.4750 -74.3794 19° North 444 511 34,900 -50 Descending Boston Center
Thu 04:19:38 PM 41.5925 -74.3303 17° North 444 511 34,900 -496 Level Boston Center
Thu 04:20:38 PM 41.7164 -74.2756 18° North 444 511 33,900 -893 Descending Boston Center
Thu 04:21:39 PM 41.8236 -74.2286 18° North 449 517 33,100 -908 Descending Boston Center
Thu 04:22:37 PM 41.9394 -74.1453 28° Northeast 449 517 32,100 -966 Descending Boston Center
Thu 04:23:37 PM 42.0453 -74.0392 37° Northeast 458 527 31,200 -545 Descending Boston Center
Thu 04:24:38 PM 42.1489 -73.9297 38° Northeast 471 542 31,000 -595 Descending Boston Center
Thu 04:25:38 PM 42.2567 -73.8172 38° Northeast 478 550 30,000 -1,587 Descending Boston Center
Thu 04:26:39 PM 42.3578 -73.7100 38° Northeast 478 550 27,800 -2,380 Descending Boston Center
Thu 04:27:39 PM 42.4592 -73.6022 38° Northeast 466 536 25,200 -1,932 Descending Boston Center
Thu 04:28:37 PM 42.5311 -73.4656 54° Northeast 440 506 24,000 -1,160 Descending Boston Center
Thu 04:29:38 PM 42.5703 -73.2858 73° East 452 520 22,900 -992 Descending Boston Center
Thu 04:30:38 PM 42.6025 -73.1508 72° East 427 491 22,000 -1,000 Descending Boston Center
Thu 04:31:38 PM 42.6431 -72.9764 72° East 422 486 20,900 -1,041 Descending Boston Center
Thu 04:32:39 PM 42.6686 -72.8214 77° East 422 486 19,900 -1,190 Descending Boston Center
Thu 04:33:39 PM 42.6961 -72.6744 76° East 411 473 18,500 -1,744 Descending Boston Center
Thu 04:34:36 PM 42.7214 -72.5278 77° East 398 458 16,500 -2,000 Descending Boston Center
Thu 04:35:39 PM 42.7442 -72.3864 78° East 393 452 14,500 -1,934 Descending Boston Center
Thu 04:36:37 PM 42.7692 -72.2450 76° East 388 447 12,600 -1,881 Descending Boston Center
Thu 04:37:37 PM 42.7875 -72.1233 78° East 375 432 10,800 -1,579 Descending Boston Center
Thu 04:39:28 PM 42.8500 -71.8833 70° East 320 368 8,100 -1,558 Descending KA90
Thu 04:40:38 PM 42.9069 -71.7797 53° Northeast 310 357 6,100 -1,603 Descending Boston Center
Thu 04:41:39 PM 42.9525 -71.6997 52° Northeast 304 350 4,600 -1,109 Descending Boston Center
Thu 04:42:37 PM 42.9975 -71.6083 56° Northeast 275 316 3,900 -857 Descending Boston Center
Thu 04:43:38 PM 43.0158 -71.5400 70° East 224 258 2,900 -1,082 Descending Boston Center
Thu 04:44:39 PM 43.0069 -71.4806 102° East 153 176 1,700 -857 Descending Boston Center
Thu 04:45:37 PM 42.9778 -71.4611 154° Southeast 128 147 1,200 3,681 Descending Boston Center
Thu 04:46:38 PM 42.9419 -71.4389 156° South 128 147 9,000 3,836 Climbing Boston Center
Thu 04:47:39 PM 42.9086 -71.4197 157° South 128 147 9,000  Level Boston Center
Thu 04:48:36 PM 42.8728 -71.3975 156° South 128 147 9,000  Level Boston Center
Thu 04:49:37 PM 42.8353 -71.3783 159° South 128 147 9,000  Level Boston Center
Thu 04:50:39 PM 42.7994 -71.3564 156° South 128 147 9,000  Level Boston Center
Thu 04:52:00 PM 42.9157 -71.4320 316° Northwest  Level FlightAware Approximate
Thu 04:59:00 PM 42.9167 -71.4333 316° Northwest  Level FlightAware Approximate
Thu 05:00:00 PM 42.9328 -71.4358 316° Northwest  Level Estimated
Thu 05:01:00 PM 42.9328 -71.4358 316° Northwest  Level Estimated
Thu 05:02:00 PM 42.9328 -71.4358 316° Northwest  Level Estimated
Thu 05:03:00 PM 42.9328 -71.4358 316° Northwest  Level Estimated
Thu 05:04:00 PM 42.9328 -71.4358 316° Northwest  Level Estimated

Login

Don't have an account? Register now (free) for customized features, flight alerts, and more!